< < Back
Terminal Aerodrome Forecast


Current Version              Previous Versions:   1  2  3  4  5  6  7  8  9  

Terminal Aerodrome Forecast

832
FTUS42 KGSP 290520
TAFAND
TAF
KAND 290520Z 2906/3006 04003KT 6SM BR SCT120
     FM290800 00000KT 3SM BR SCT110
     FM291000 00000KT 2SM BR BKN050
     FM291400 20003KT P6SM BKN045
     FM291900 08005KT P6SM BKN035
     FM300300 12004KT P6SM SCT160=



Latest METAR

153
SAUS70 KWBC 291400 RRA
MTRAND
METAR KAND 291356Z AUTO 17003KT 10SM SCT010 SCT037 BKN075 22/19 A3026
RMK AO2 SLP241 T02170189


USA.gov is the U.S. government's official web portal to all federal, state and local government web resources and services.